sensor_id;sensor_type;location;lat;lon;timestamp;P1;durP1;ratioP1;P2;durP2;ratioP2
3967;SDS011;9221;42.646;23.380;2023-05-19T00:00:41;5.20;;;3.03;;
3967;SDS011;9221;42.646;23.380;2023-05-19T00:03:08;6.43;;;3.23;;
3967;SDS011;9221;42.646;23.380;2023-05-19T00:05:35;6.53;;;3.60;;
3967;SDS011;9221;42.646;23.380;2023-05-19T00:08:04;4.73;;;3.00;;
3967;SDS011;9221;42.646;23.380;2023-05-19T00:10:34;6.33;;;3.07;;
3967;SDS011;9221;42.646;23.380;2023-05-19T00:13:00;7.60;;;3.63;;
3967;SDS011;9221;42.646;23.380;2023-05-19T00:15:25;8.83;;;3.83;;
3967;SDS011;9221;42.646;23.380;2023-05-19T00:17:51;8.43;;;3.17;;
3967;SDS011;9221;42.646;23.380;2023-05-19T00:20:19;7.27;;;3.03;;
3967;SDS011;9221;42.646;23.380;2023-05-19T00:22:44;4.30;;;2.67;;
3967;SDS011;9221;42.646;23.380;2023-05-19T00:25:10;6.03;;;3.33;;
3967;SDS011;9221;42.646;23.380;2023-05-19T00:27:35;8.80;;;3.60;;
3967;SDS011;9221;42.646;23.380;2023-05-19T00:30:00;7.47;;;3.10;;
3967;SDS011;9221;42.646;23.380;2023-05-19T00:32:26;7.60;;;3.53;;
3967;SDS011;9221;42.646;23.380;2023-05-19T00:34:51;6.83;;;3.10;;
3967;SDS011;9221;42.646;23.380;2023-05-19T00:37:17;7.33;;;3.30;;
3967;SDS011;9221;42.646;23.380;2023-05-19T00:39:42;6.80;;;3.77;;
3967;SDS011;9221;42.646;23.380;2023-05-19T00:42:07;6.83;;;3.20;;
3967;SDS011;9221;42.646;23.380;2023-05-19T00:44:34;11.30;;;4.50;;
3967;SDS011;9221;42.646;23.380;2023-05-19T00:47:03;7.03;;;4.10;;
3967;SDS011;9221;42.646;23.380;2023-05-19T00:49:29;5.70;;;3.50;;
3967;SDS011;9221;42.646;23.380;2023-05-19T00:51:55;7.33;;;3.43;;
3967;SDS011;9221;42.646;23.380;2023-05-19T00:54:20;7.57;;;3.67;;
3967;SDS011;9221;42.646;23.380;2023-05-19T00:56:46;8.50;;;3.80;;
3967;SDS011;9221;42.646;23.380;2023-05-19T00:59:13;8.93;;;4.00;;
3967;SDS011;9221;42.646;23.380;2023-05-19T01:01:39;7.33;;;3.73;;
3967;SDS011;9221;42.646;23.380;2023-05-19T01:04:04;10.93;;;4.20;;
3967;SDS011;9221;42.646;23.380;2023-05-19T01:06:33;7.40;;;3.70;;
3967;SDS011;9221;42.646;23.380;2023-05-19T01:09:01;14.13;;;3.60;;
3967;SDS011;9221;42.646;23.380;2023-05-19T01:11:27;9.30;;;4.03;;
3967;SDS011;9221;42.646;23.380;2023-05-19T01:13:53;5.33;;;3.00;;
3967;SDS011;9221;42.646;23.380;2023-05-19T01:16:29;7.93;;;3.67;;
3967;SDS011;9221;42.646;23.380;2023-05-19T01:32:47;7.97;;;3.93;;
3967;SDS011;9221;42.646;23.380;2023-05-19T01:35:15;7.53;;;3.90;;
3967;SDS011;9221;42.646;23.380;2023-05-19T01:37:41;7.90;;;4.20;;
3967;SDS011;9221;42.646;23.380;2023-05-19T01:40:07;6.60;;;3.50;;
3967;SDS011;9221;42.646;23.380;2023-05-19T01:42:33;8.90;;;4.90;;
3967;SDS011;9221;42.646;23.380;2023-05-19T01:45:02;9.87;;;4.40;;
3967;SDS011;9221;42.646;23.380;2023-05-19T01:47:31;9.80;;;4.20;;
3967;SDS011;9221;42.646;23.380;2023-05-19T01:49:59;11.10;;;4.33;;
3967;SDS011;9221;42.646;23.380;2023-05-19T01:52:24;9.57;;;5.00;;
3967;SDS011;9221;42.646;23.380;2023-05-19T01:54:50;6.67;;;4.17;;
3967;SDS011;9221;42.646;23.380;2023-05-19T02:06:00;9.90;;;5.07;;
3967;SDS011;9221;42.646;23.380;2023-05-19T02:11:30;8.87;;;4.93;;
3967;SDS011;9221;42.646;23.380;2023-05-19T02:14:02;9.90;;;4.20;;
3967;SDS011;9221;42.646;23.380;2023-05-19T02:16:33;9.70;;;4.30;;
3967;SDS011;9221;42.646;23.380;2023-05-19T02:19:01;11.47;;;4.53;;
3967;SDS011;9221;42.646;23.380;2023-05-19T02:21:26;6.43;;;3.90;;
3967;SDS011;9221;42.646;23.380;2023-05-19T02:23:51;13.00;;;4.23;;
3967;SDS011;9221;42.646;23.380;2023-05-19T02:26:17;9.70;;;5.07;;
3967;SDS011;9221;42.646;23.380;2023-05-19T02:28:42;8.47;;;4.37;;
3967;SDS011;9221;42.646;23.380;2023-05-19T02:31:07;10.83;;;5.07;;
3967;SDS011;9221;42.646;23.380;2023-05-19T02:33:34;12.60;;;5.03;;
3967;SDS011;9221;42.646;23.380;2023-05-19T02:36:00;9.70;;;4.90;;
3967;SDS011;9221;42.646;23.380;2023-05-19T02:38:25;10.50;;;5.07;;
3967;SDS011;9221;42.646;23.380;2023-05-19T02:40:51;12.97;;;5.67;;
3967;SDS011;9221;42.646;23.380;2023-05-19T02:43:17;13.37;;;5.80;;
3967;SDS011;9221;42.646;23.380;2023-05-19T02:45:43;11.70;;;5.60;;
3967;SDS011;9221;42.646;23.380;2023-05-19T02:48:08;14.00;;;6.10;;
3967;SDS011;9221;42.646;23.380;2023-05-19T02:50:34;15.53;;;6.00;;
3967;SDS011;9221;42.646;23.380;2023-05-19T02:52:59;10.87;;;4.70;;
3967;SDS011;9221;42.646;23.380;2023-05-19T02:55:25;12.40;;;5.33;;
3967;SDS011;9221;42.646;23.380;2023-05-19T02:57:50;14.03;;;5.33;;
3967;SDS011;9221;42.646;23.380;2023-05-19T03:00:16;13.97;;;6.00;;
3967;SDS011;9221;42.646;23.380;2023-05-19T03:02:41;11.47;;;4.93;;
3967;SDS011;9221;42.646;23.380;2023-05-19T03:05:08;13.63;;;6.07;;
3967;SDS011;9221;42.646;23.380;2023-05-19T03:07:34;10.37;;;5.23;;
3967;SDS011;9221;42.646;23.380;2023-05-19T03:10:00;12.00;;;5.37;;
3967;SDS011;9221;42.646;23.380;2023-05-19T03:12:28;11.00;;;4.70;;
3967;SDS011;9221;42.646;23.380;2023-05-19T03:14:53;11.97;;;5.57;;
3967;SDS011;9221;42.646;23.380;2023-05-19T03:17:19;15.73;;;6.10;;
3967;SDS011;9221;42.646;23.380;2023-05-19T03:19:44;14.27;;;5.40;;
3967;SDS011;9221;42.646;23.380;2023-05-19T03:22:10;15.80;;;6.60;;
3967;SDS011;9221;42.646;23.380;2023-05-19T03:24:35;16.30;;;6.37;;
3967;SDS011;9221;42.646;23.380;2023-05-19T03:27:01;13.00;;;6.20;;
3967;SDS011;9221;42.646;23.380;2023-05-19T03:29:26;14.60;;;6.93;;
3967;SDS011;9221;42.646;23.380;2023-05-19T03:31:52;11.77;;;6.40;;
3967;SDS011;9221;42.646;23.380;2023-05-19T03:34:17;15.33;;;6.90;;
3967;SDS011;9221;42.646;23.380;2023-05-19T03:36:42;17.50;;;6.90;;
3967;SDS011;9221;42.646;23.380;2023-05-19T03:39:09;13.97;;;6.13;;
3967;SDS011;9221;42.646;23.380;2023-05-19T03:41:35;14.50;;;6.87;;
3967;SDS011;9221;42.646;23.380;2023-05-19T03:44:00;15.17;;;6.10;;
3967;SDS011;9221;42.646;23.380;2023-05-19T03:46:26;16.97;;;7.70;;
3967;SDS011;9221;42.646;23.380;2023-05-19T03:48:51;19.50;;;6.80;;
3967;SDS011;9221;42.646;23.380;2023-05-19T03:51:16;20.20;;;6.70;;
3967;SDS011;9221;42.646;23.380;2023-05-19T03:53:42;21.67;;;7.67;;
3967;SDS011;9221;42.646;23.380;2023-05-19T03:56:08;11.43;;;6.00;;
3967;SDS011;9221;42.646;23.380;2023-05-19T03:58:35;14.63;;;6.70;;
3967;SDS011;9221;42.646;23.380;2023-05-19T04:01:03;13.47;;;5.80;;
3967;SDS011;9221;42.646;23.380;2023-05-19T04:03:28;13.07;;;6.63;;
3967;SDS011;9221;42.646;23.380;2023-05-19T04:05:54;14.60;;;6.00;;
3967;SDS011;9221;42.646;23.380;2023-05-19T04:08:19;17.50;;;7.77;;
3967;SDS011;9221;42.646;23.380;2023-05-19T04:10:44;16.70;;;6.70;;
3967;SDS011;9221;42.646;23.380;2023-05-19T04:13:10;15.40;;;6.30;;
3967;SDS011;9221;42.646;23.380;2023-05-19T04:15:35;14.80;;;6.13;;
3967;SDS011;9221;42.646;23.380;2023-05-19T04:18:01;11.57;;;6.10;;
3967;SDS011;9221;42.646;23.380;2023-05-19T04:20:26;14.37;;;6.70;;
3967;SDS011;9221;42.646;23.380;2023-05-19T04:22:52;23.03;;;6.77;;
3967;SDS011;9221;42.646;23.380;2023-05-19T04:25:17;16.73;;;6.57;;
3967;SDS011;9221;42.646;23.380;2023-05-19T04:27:44;14.90;;;6.17;;
3967;SDS011;9221;42.646;23.380;2023-05-19T04:30:09;11.97;;;5.87;;
3967;SDS011;9221;42.646;23.380;2023-05-19T04:32:36;12.67;;;6.17;;
3967;SDS011;9221;42.646;23.380;2023-05-19T04:35:01;15.07;;;6.00;;
3967;SDS011;9221;42.646;23.380;2023-05-19T04:37:28;14.20;;;6.80;;
3967;SDS011;9221;42.646;23.380;2023-05-19T04:39:53;16.23;;;6.27;;
3967;SDS011;9221;42.646;23.380;2023-05-19T04:42:19;20.47;;;8.00;;
3967;SDS011;9221;42.646;23.380;2023-05-19T04:44:45;15.17;;;6.50;;
3967;SDS011;9221;42.646;23.380;2023-05-19T04:47:13;16.63;;;6.80;;
3967;SDS011;9221;42.646;23.380;2023-05-19T04:49:39;13.53;;;6.80;;
3967;SDS011;9221;42.646;23.380;2023-05-19T04:52:09;14.33;;;6.50;;
3967;SDS011;9221;42.646;23.380;2023-05-19T04:54:35;20.50;;;6.90;;
3967;SDS011;9221;42.646;23.380;2023-05-19T04:57:02;16.00;;;7.07;;
3967;SDS011;9221;42.646;23.380;2023-05-19T04:59:27;15.37;;;7.13;;
3967;SDS011;9221;42.646;23.380;2023-05-19T05:01:53;15.70;;;6.20;;
3967;SDS011;9221;42.646;23.380;2023-05-19T05:04:20;16.33;;;6.30;;
3967;SDS011;9221;42.646;23.380;2023-05-19T05:06:45;13.43;;;6.27;;
3967;SDS011;9221;42.646;23.380;2023-05-19T05:09:13;31.37;;;6.57;;
3967;SDS011;9221;42.646;23.380;2023-05-19T05:11:39;16.73;;;6.53;;
3967;SDS011;9221;42.646;23.380;2023-05-19T05:14:05;23.77;;;6.83;;
3967;SDS011;9221;42.646;23.380;2023-05-19T05:16:31;18.13;;;6.00;;
3967;SDS011;9221;42.646;23.380;2023-05-19T05:18:58;12.47;;;5.90;;
3967;SDS011;9221;42.646;23.380;2023-05-19T05:21:24;15.47;;;7.30;;
3967;SDS011;9221;42.646;23.380;2023-05-19T05:23:50;15.53;;;7.17;;
3967;SDS011;9221;42.646;23.380;2023-05-19T05:26:16;15.53;;;6.63;;
3967;SDS011;9221;42.646;23.380;2023-05-19T05:28:49;21.87;;;7.50;;
3967;SDS011;9221;42.646;23.380;2023-05-19T05:31:14;17.17;;;6.30;;
3967;SDS011;9221;42.646;23.380;2023-05-19T05:33:40;20.20;;;7.60;;
3967;SDS011;9221;42.646;23.380;2023-05-19T05:36:06;20.60;;;7.10;;
3967;SDS011;9221;42.646;23.380;2023-05-19T05:38:32;18.80;;;6.83;;
3967;SDS011;9221;42.646;23.380;2023-05-19T05:40:57;16.20;;;6.10;;
3967;SDS011;9221;42.646;23.380;2023-05-19T05:43:23;12.37;;;6.20;;
3967;SDS011;9221;42.646;23.380;2023-05-19T05:45:48;13.10;;;6.80;;
3967;SDS011;9221;42.646;23.380;2023-05-19T05:48:14;12.07;;;5.83;;
3967;SDS011;9221;42.646;23.380;2023-05-19T05:50:40;17.53;;;6.23;;
3967;SDS011;9221;42.646;23.380;2023-05-19T05:53:07;18.90;;;6.07;;
3967;SDS011;9221;42.646;23.380;2023-05-19T05:55:34;18.33;;;7.47;;
3967;SDS011;9221;42.646;23.380;2023-05-19T05:57:59;20.37;;;8.20;;
3967;SDS011;9221;42.646;23.380;2023-05-19T06:00:26;12.90;;;6.93;;
3967;SDS011;9221;42.646;23.380;2023-05-19T06:02:52;14.33;;;5.90;;
3967;SDS011;9221;42.646;23.380;2023-05-19T06:05:18;13.20;;;5.80;;
3967;SDS011;9221;42.646;23.380;2023-05-19T06:07:43;16.47;;;6.50;;
3967;SDS011;9221;42.646;23.380;2023-05-19T06:10:09;18.90;;;6.30;;
3967;SDS011;9221;42.646;23.380;2023-05-19T06:12:35;14.53;;;6.33;;
3967;SDS011;9221;42.646;23.380;2023-05-19T06:15:04;19.00;;;6.17;;
3967;SDS011;9221;42.646;23.380;2023-05-19T06:17:30;16.10;;;5.83;;
3967;SDS011;9221;42.646;23.380;2023-05-19T06:19:58;15.07;;;6.43;;
3967;SDS011;9221;42.646;23.380;2023-05-19T06:22:23;16.83;;;6.53;;
3967;SDS011;9221;42.646;23.380;2023-05-19T06:24:49;12.60;;;6.53;;
3967;SDS011;9221;42.646;23.380;2023-05-19T06:27:14;9.83;;;5.33;;
3967;SDS011;9221;42.646;23.380;2023-05-19T06:29:39;13.33;;;5.60;;
3967;SDS011;9221;42.646;23.380;2023-05-19T06:32:05;12.50;;;4.77;;
3967;SDS011;9221;42.646;23.380;2023-05-19T06:34:30;13.20;;;5.70;;
3967;SDS011;9221;42.646;23.380;2023-05-19T06:36:56;19.40;;;5.70;;
3967;SDS011;9221;42.646;23.380;2023-05-19T06:39:21;10.80;;;4.73;;
3967;SDS011;9221;42.646;23.380;2023-05-19T06:41:47;11.50;;;5.50;;
3967;SDS011;9221;42.646;23.380;2023-05-19T06:44:12;13.90;;;5.60;;
3967;SDS011;9221;42.646;23.380;2023-05-19T06:46:37;13.13;;;4.67;;
3967;SDS011;9221;42.646;23.380;2023-05-19T06:49:03;8.90;;;3.90;;
3967;SDS011;9221;42.646;23.380;2023-05-19T06:51:28;9.70;;;5.00;;
3967;SDS011;9221;42.646;23.380;2023-05-19T06:53:54;11.60;;;4.17;;
3967;SDS011;9221;42.646;23.380;2023-05-19T06:56:19;10.87;;;5.20;;
3967;SDS011;9221;42.646;23.380;2023-05-19T06:58:45;9.90;;;4.20;;
3967;SDS011;9221;42.646;23.380;2023-05-19T07:01:11;10.33;;;4.50;;
3967;SDS011;9221;42.646;23.380;2023-05-19T07:03:36;8.77;;;4.30;;
3967;SDS011;9221;42.646;23.380;2023-05-19T07:06:01;9.17;;;4.90;;
3967;SDS011;9221;42.646;23.380;2023-05-19T07:08:27;8.73;;;4.13;;
3967;SDS011;9221;42.646;23.380;2023-05-19T07:10:52;11.90;;;5.27;;
3967;SDS011;9221;42.646;23.380;2023-05-19T07:13:19;27.10;;;4.63;;
3967;SDS011;9221;42.646;23.380;2023-05-19T07:15:44;11.37;;;5.57;;
3967;SDS011;9221;42.646;23.380;2023-05-19T07:18:11;12.77;;;6.57;;
3967;SDS011;9221;42.646;23.380;2023-05-19T07:20:37;9.80;;;5.23;;
3967;SDS011;9221;42.646;23.380;2023-05-19T07:23:02;8.40;;;4.63;;
3967;SDS011;9221;42.646;23.380;2023-05-19T07:25:29;9.50;;;4.20;;
3967;SDS011;9221;42.646;23.380;2023-05-19T07:27:55;10.10;;;5.10;;
3967;SDS011;9221;42.646;23.380;2023-05-19T07:30:21;11.73;;;4.57;;
3967;SDS011;9221;42.646;23.380;2023-05-19T07:32:46;9.03;;;4.70;;
3967;SDS011;9221;42.646;23.380;2023-05-19T07:35:12;11.10;;;5.53;;
3967;SDS011;9221;42.646;23.380;2023-05-19T07:37:37;12.13;;;5.40;;
3967;SDS011;9221;42.646;23.380;2023-05-19T07:40:03;18.10;;;4.93;;
3967;SDS011;9221;42.646;23.380;2023-05-19T07:42:30;10.43;;;5.20;;
3967;SDS011;9221;42.646;23.380;2023-05-19T07:44:56;15.77;;;5.10;;
3967;SDS011;9221;42.646;23.380;2023-05-19T07:47:21;16.40;;;5.23;;
3967;SDS011;9221;42.646;23.380;2023-05-19T07:49:46;8.93;;;4.90;;
3967;SDS011;9221;42.646;23.380;2023-05-19T07:52:12;9.67;;;5.20;;
3967;SDS011;9221;42.646;23.380;2023-05-19T07:54:37;12.00;;;5.87;;
3967;SDS011;9221;42.646;23.380;2023-05-19T07:57:02;11.80;;;5.63;;
3967;SDS011;9221;42.646;23.380;2023-05-19T07:59:28;13.53;;;5.53;;
3967;SDS011;9221;42.646;23.380;2023-05-19T08:01:53;11.43;;;6.03;;
3967;SDS011;9221;42.646;23.380;2023-05-19T08:04:19;11.03;;;5.30;;
3967;SDS011;9221;42.646;23.380;2023-05-19T08:06:45;11.17;;;5.03;;
3967;SDS011;9221;42.646;23.380;2023-05-19T08:09:10;12.73;;;5.30;;
3967;SDS011;9221;42.646;23.380;2023-05-19T08:11:35;23.03;;;7.17;;
3967;SDS011;9221;42.646;23.380;2023-05-19T08:14:01;15.97;;;6.77;;
3967;SDS011;9221;42.646;23.380;2023-05-19T08:16:27;27.00;;;7.00;;
3967;SDS011;9221;42.646;23.380;2023-05-19T08:18:52;12.77;;;5.40;;
3967;SDS011;9221;42.646;23.380;2023-05-19T08:21:18;14.13;;;6.80;;
3967;SDS011;9221;42.646;23.380;2023-05-19T08:23:44;14.63;;;5.23;;
3967;SDS011;9221;42.646;23.380;2023-05-19T08:26:09;13.07;;;5.63;;
3967;SDS011;9221;42.646;23.380;2023-05-19T08:28:35;15.33;;;6.20;;
3967;SDS011;9221;42.646;23.380;2023-05-19T08:31:00;11.10;;;5.60;;
3967;SDS011;9221;42.646;23.380;2023-05-19T08:33:25;12.17;;;5.70;;
3967;SDS011;9221;42.646;23.380;2023-05-19T08:35:51;12.73;;;4.93;;
3967;SDS011;9221;42.646;23.380;2023-05-19T08:38:16;10.83;;;5.70;;
3967;SDS011;9221;42.646;23.380;2023-05-19T08:40:42;10.90;;;5.97;;
3967;SDS011;9221;42.646;23.380;2023-05-19T08:43:11;18.73;;;6.53;;
3967;SDS011;9221;42.646;23.380;2023-05-19T08:45:37;22.07;;;5.77;;
3967;SDS011;9221;42.646;23.380;2023-05-19T08:48:06;14.80;;;6.20;;
3967;SDS011;9221;42.646;23.380;2023-05-19T08:50:34;11.37;;;5.53;;
3967;SDS011;9221;42.646;23.380;2023-05-19T08:55:54;17.37;;;6.57;;
3967;SDS011;9221;42.646;23.380;2023-05-19T08:58:28;20.17;;;5.80;;
3967;SDS011;9221;42.646;23.380;2023-05-19T09:00:54;9.50;;;5.03;;
3967;SDS011;9221;42.646;23.380;2023-05-19T09:03:21;11.47;;;6.37;;
3967;SDS011;9221;42.646;23.380;2023-05-19T09:05:50;13.90;;;6.10;;
3967;SDS011;9221;42.646;23.380;2023-05-19T09:08:15;24.53;;;6.50;;
3967;SDS011;9221;42.646;23.380;2023-05-19T09:10:42;18.80;;;7.20;;
3967;SDS011;9221;42.646;23.380;2023-05-19T09:13:07;10.70;;;5.80;;
3967;SDS011;9221;42.646;23.380;2023-05-19T09:15:33;26.30;;;10.10;;
3967;SDS011;9221;42.646;23.380;2023-05-19T09:18:07;13.93;;;7.17;;
3967;SDS011;9221;42.646;23.380;2023-05-19T09:20:35;24.43;;;8.07;;
3967;SDS011;9221;42.646;23.380;2023-05-19T09:23:02;42.03;;;8.90;;
3967;SDS011;9221;42.646;23.380;2023-05-19T09:25:27;18.03;;;7.20;;
3967;SDS011;9221;42.646;23.380;2023-05-19T09:27:53;15.40;;;6.77;;
3967;SDS011;9221;42.646;23.380;2023-05-19T09:30:19;21.40;;;7.13;;
3967;SDS011;9221;42.646;23.380;2023-05-19T09:32:45;19.13;;;7.83;;
3967;SDS011;9221;42.646;23.380;2023-05-19T09:35:11;19.00;;;7.40;;
3967;SDS011;9221;42.646;23.380;2023-05-19T09:37:40;11.90;;;6.30;;
3967;SDS011;9221;42.646;23.380;2023-05-19T09:40:08;19.63;;;6.50;;
3967;SDS011;9221;42.646;23.380;2023-05-19T09:42:37;14.53;;;6.53;;
3967;SDS011;9221;42.646;23.380;2023-05-19T09:45:04;13.47;;;6.13;;
3967;SDS011;9221;42.646;23.380;2023-05-19T09:47:34;25.50;;;7.67;;
3967;SDS011;9221;42.646;23.380;2023-05-19T09:50:01;15.03;;;6.70;;
3967;SDS011;9221;42.646;23.380;2023-05-19T09:52:28;15.13;;;6.30;;
3967;SDS011;9221;42.646;23.380;2023-05-19T09:54:55;11.90;;;6.50;;
3967;SDS011;9221;42.646;23.380;2023-05-19T09:57:24;16.13;;;5.97;;
3967;SDS011;9221;42.646;23.380;2023-05-19T09:59:52;12.97;;;5.73;;
3967;SDS011;9221;42.646;23.380;2023-05-19T10:02:20;12.30;;;6.30;;
3967;SDS011;9221;42.646;23.380;2023-05-19T10:04:50;11.83;;;5.50;;
3967;SDS011;9221;42.646;23.380;2023-05-19T10:07:16;11.70;;;6.13;;
3967;SDS011;9221;42.646;23.380;2023-05-19T10:09:43;15.67;;;6.70;;
3967;SDS011;9221;42.646;23.380;2023-05-19T10:12:10;15.10;;;6.80;;
3967;SDS011;9221;42.646;23.380;2023-05-19T10:14:37;19.43;;;5.97;;
3967;SDS011;9221;42.646;23.380;2023-05-19T10:17:03;11.37;;;6.23;;
3967;SDS011;9221;42.646;23.380;2023-05-19T10:19:28;11.83;;;6.20;;
3967;SDS011;9221;42.646;23.380;2023-05-19T10:21:54;15.23;;;6.70;;
3967;SDS011;9221;42.646;23.380;2023-05-19T10:24:20;17.33;;;7.50;;
3967;SDS011;9221;42.646;23.380;2023-05-19T10:29:19;19.10;;;7.27;;
3967;SDS011;9221;42.646;23.380;2023-05-19T10:31:47;17.70;;;6.40;;
3967;SDS011;9221;42.646;23.380;2023-05-19T10:34:26;11.93;;;6.67;;
3967;SDS011;9221;42.646;23.380;2023-05-19T10:37:22;11.43;;;5.73;;
3967;SDS011;9221;42.646;23.380;2023-05-19T10:39:50;10.10;;;6.30;;
3967;SDS011;9221;42.646;23.380;2023-05-19T10:42:34;13.40;;;6.53;;
3967;SDS011;9221;42.646;23.380;2023-05-19T10:45:15;15.43;;;5.87;;
3967;SDS011;9221;42.646;23.380;2023-05-19T10:47:43;14.67;;;6.80;;
3967;SDS011;9221;42.646;23.380;2023-05-19T10:50:10;15.37;;;5.70;;
3967;SDS011;9221;42.646;23.380;2023-05-19T10:52:36;15.40;;;6.10;;
3967;SDS011;9221;42.646;23.380;2023-05-19T10:55:02;12.47;;;6.97;;
3967;SDS011;9221;42.646;23.380;2023-05-19T10:57:28;10.27;;;6.80;;
3967;SDS011;9221;42.646;23.380;2023-05-19T10:59:56;7.93;;;4.90;;
3967;SDS011;9221;42.646;23.380;2023-05-19T11:05:10;11.33;;;6.67;;
3967;SDS011;9221;42.646;23.380;2023-05-19T11:07:41;10.90;;;5.57;;
3967;SDS011;9221;42.646;23.380;2023-05-19T11:10:08;10.27;;;5.73;;
3967;SDS011;9221;42.646;23.380;2023-05-19T11:12:41;17.93;;;5.63;;
3967;SDS011;9221;42.646;23.380;2023-05-19T11:15:15;13.23;;;6.47;;
3967;SDS011;9221;42.646;23.380;2023-05-19T11:17:41;12.70;;;5.50;;
3967;SDS011;9221;42.646;23.380;2023-05-19T11:20:18;12.87;;;5.63;;
3967;SDS011;9221;42.646;23.380;2023-05-19T11:23:04;12.30;;;6.07;;
3967;SDS011;9221;42.646;23.380;2023-05-19T11:28:26;14.53;;;5.63;;
3967;SDS011;9221;42.646;23.380;2023-05-19T11:30:54;8.77;;;5.50;;
3967;SDS011;9221;42.646;23.380;2023-05-19T11:33:21;14.43;;;6.57;;
3967;SDS011;9221;42.646;23.380;2023-05-19T11:35:51;12.67;;;5.47;;
3967;SDS011;9221;42.646;23.380;2023-05-19T11:38:18;11.80;;;6.20;;
3967;SDS011;9221;42.646;23.380;2023-05-19T11:40:45;10.70;;;5.47;;
3967;SDS011;9221;42.646;23.380;2023-05-19T11:43:13;15.80;;;6.97;;
3967;SDS011;9221;42.646;23.380;2023-05-19T11:45:40;18.23;;;7.00;;
3967;SDS011;9221;42.646;23.380;2023-05-19T11:48:09;16.57;;;6.27;;
3967;SDS011;9221;42.646;23.380;2023-05-19T11:50:36;14.60;;;5.93;;
3967;SDS011;9221;42.646;23.380;2023-05-19T11:53:04;16.20;;;6.10;;
3967;SDS011;9221;42.646;23.380;2023-05-19T11:55:30;13.10;;;6.40;;
3967;SDS011;9221;42.646;23.380;2023-05-19T11:57:59;13.50;;;6.80;;
3967;SDS011;9221;42.646;23.380;2023-05-19T12:00:29;20.03;;;7.30;;
3967;SDS011;9221;42.646;23.380;2023-05-19T12:03:01;16.73;;;6.27;;
3967;SDS011;9221;42.646;23.380;2023-05-19T12:05:26;9.40;;;4.77;;
3967;SDS011;9221;42.646;23.380;2023-05-19T12:07:53;10.30;;;4.60;;
3967;SDS011;9221;42.646;23.380;2023-05-19T12:10:37;12.20;;;4.50;;
3967;SDS011;9221;42.646;23.380;2023-05-19T12:13:03;6.60;;;3.80;;
3967;SDS011;9221;42.646;23.380;2023-05-19T12:15:30;8.77;;;4.33;;
3967;SDS011;9221;42.646;23.380;2023-05-19T12:17:56;9.83;;;4.23;;
3967;SDS011;9221;42.646;23.380;2023-05-19T12:20:23;11.33;;;4.53;;
3967;SDS011;9221;42.646;23.380;2023-05-19T12:22:50;10.03;;;4.77;;
3967;SDS011;9221;42.646;23.380;2023-05-19T12:25:17;13.10;;;4.60;;
3967;SDS011;9221;42.646;23.380;2023-05-19T12:27:43;15.30;;;4.50;;
3967;SDS011;9221;42.646;23.380;2023-05-19T12:30:09;11.60;;;4.40;;
3967;SDS011;9221;42.646;23.380;2023-05-19T12:32:35;9.07;;;4.43;;
3967;SDS011;9221;42.646;23.380;2023-05-19T12:35:01;13.27;;;4.50;;
3967;SDS011;9221;42.646;23.380;2023-05-19T12:37:31;11.70;;;4.90;;
3967;SDS011;9221;42.646;23.380;2023-05-19T12:39:59;9.10;;;3.90;;
3967;SDS011;9221;42.646;23.380;2023-05-19T12:42:26;10.43;;;5.00;;
3967;SDS011;9221;42.646;23.380;2023-05-19T12:44:56;8.70;;;3.90;;
3967;SDS011;9221;42.646;23.380;2023-05-19T12:47:28;13.90;;;4.73;;
3967;SDS011;9221;42.646;23.380;2023-05-19T12:50:05;10.23;;;4.13;;
3967;SDS011;9221;42.646;23.380;2023-05-19T12:52:32;10.80;;;4.97;;
3967;SDS011;9221;42.646;23.380;2023-05-19T12:55:04;10.00;;;4.13;;
3967;SDS011;9221;42.646;23.380;2023-05-19T12:57:34;8.60;;;4.10;;
3967;SDS011;9221;42.646;23.380;2023-05-19T13:00:06;12.47;;;4.27;;
3967;SDS011;9221;42.646;23.380;2023-05-19T13:02:57;15.60;;;5.00;;
3967;SDS011;9221;42.646;23.380;2023-05-19T13:05:24;13.90;;;4.33;;
3967;SDS011;9221;42.646;23.380;2023-05-19T13:07:54;7.33;;;3.90;;
3967;SDS011;9221;42.646;23.380;2023-05-19T13:10:20;7.33;;;3.93;;
3967;SDS011;9221;42.646;23.380;2023-05-19T13:12:45;7.50;;;4.20;;
3967;SDS011;9221;42.646;23.380;2023-05-19T13:15:10;9.27;;;4.70;;
3967;SDS011;9221;42.646;23.380;2023-05-19T13:17:36;8.30;;;3.80;;
3967;SDS011;9221;42.646;23.380;2023-05-19T13:20:01;6.27;;;3.33;;
3967;SDS011;9221;42.646;23.380;2023-05-19T13:22:28;7.33;;;3.80;;
3967;SDS011;9221;42.646;23.380;2023-05-19T13:24:54;10.40;;;4.80;;
3967;SDS011;9221;42.646;23.380;2023-05-19T13:27:22;15.03;;;4.50;;
3967;SDS011;9221;42.646;23.380;2023-05-19T13:29:48;6.10;;;3.70;;
3967;SDS011;9221;42.646;23.380;2023-05-19T13:32:14;13.93;;;4.73;;
3967;SDS011;9221;42.646;23.380;2023-05-19T13:34:40;8.63;;;4.57;;
3967;SDS011;9221;42.646;23.380;2023-05-19T13:37:05;5.63;;;3.43;;
3967;SDS011;9221;42.646;23.380;2023-05-19T13:39:33;6.37;;;3.83;;
3967;SDS011;9221;42.646;23.380;2023-05-19T13:41:59;7.10;;;3.90;;
3967;SDS011;9221;42.646;23.380;2023-05-19T13:44:24;10.43;;;4.50;;
3967;SDS011;9221;42.646;23.380;2023-05-19T13:46:50;8.87;;;4.40;;
3967;SDS011;9221;42.646;23.380;2023-05-19T13:49:15;9.53;;;4.50;;
3967;SDS011;9221;42.646;23.380;2023-05-19T13:51:41;7.80;;;4.40;;
3967;SDS011;9221;42.646;23.380;2023-05-19T13:54:07;9.10;;;4.20;;
3967;SDS011;9221;42.646;23.380;2023-05-19T13:56:33;12.90;;;4.90;;
3967;SDS011;9221;42.646;23.380;2023-05-19T13:58:58;8.70;;;4.30;;
3967;SDS011;9221;42.646;23.380;2023-05-19T14:01:24;6.63;;;3.83;;
3967;SDS011;9221;42.646;23.380;2023-05-19T14:03:49;11.03;;;4.40;;
3967;SDS011;9221;42.646;23.380;2023-05-19T14:06:14;8.93;;;4.40;;
3967;SDS011;9221;42.646;23.380;2023-05-19T14:08:40;9.27;;;4.70;;
3967;SDS011;9221;42.646;23.380;2023-05-19T14:11:06;8.27;;;4.77;;
3967;SDS011;9221;42.646;23.380;2023-05-19T14:13:31;8.13;;;4.47;;
3967;SDS011;9221;42.646;23.380;2023-05-19T14:15:56;7.13;;;4.40;;
3967;SDS011;9221;42.646;23.380;2023-05-19T14:18:22;7.90;;;4.70;;
3967;SDS011;9221;42.646;23.380;2023-05-19T14:20:47;7.00;;;4.30;;
3967;SDS011;9221;42.646;23.380;2023-05-19T14:23:13;11.23;;;4.67;;
3967;SDS011;9221;42.646;23.380;2023-05-19T14:25:40;8.53;;;4.57;;
3967;SDS011;9221;42.646;23.380;2023-05-19T14:28:05;10.33;;;4.47;;
3967;SDS011;9221;42.646;23.380;2023-05-19T14:30:30;19.03;;;4.83;;
3967;SDS011;9221;42.646;23.380;2023-05-19T14:32:56;13.07;;;5.10;;
3967;SDS011;9221;42.646;23.380;2023-05-19T14:35:21;12.53;;;5.10;;
3967;SDS011;9221;42.646;23.380;2023-05-19T14:37:46;12.30;;;5.00;;
3967;SDS011;9221;42.646;23.380;2023-05-19T14:40:12;11.90;;;4.60;;
3967;SDS011;9221;42.646;23.380;2023-05-19T14:42:37;7.60;;;4.40;;
3967;SDS011;9221;42.646;23.380;2023-05-19T14:45:03;9.80;;;5.17;;
3967;SDS011;9221;42.646;23.380;2023-05-19T14:47:28;10.97;;;5.17;;
3967;SDS011;9221;42.646;23.380;2023-05-19T14:49:54;8.43;;;4.20;;
3967;SDS011;9221;42.646;23.380;2023-05-19T14:52:19;8.70;;;4.30;;
3967;SDS011;9221;42.646;23.380;2023-05-19T14:54:44;9.20;;;4.40;;
3967;SDS011;9221;42.646;23.380;2023-05-19T14:57:10;17.03;;;4.80;;
3967;SDS011;9221;42.646;23.380;2023-05-19T14:59:36;9.17;;;5.13;;
3967;SDS011;9221;42.646;23.380;2023-05-19T15:02:01;8.27;;;4.80;;
3967;SDS011;9221;42.646;23.380;2023-05-19T15:04:27;12.13;;;4.47;;
3967;SDS011;9221;42.646;23.380;2023-05-19T15:06:52;7.97;;;3.67;;
3967;SDS011;9221;42.646;23.380;2023-05-19T15:09:17;8.70;;;4.20;;
3967;SDS011;9221;42.646;23.380;2023-05-19T15:11:43;11.23;;;3.80;;
3967;SDS011;9221;42.646;23.380;2023-05-19T15:14:08;7.40;;;4.33;;
3967;SDS011;9221;42.646;23.380;2023-05-19T15:16:33;11.13;;;5.47;;
3967;SDS011;9221;42.646;23.380;2023-05-19T15:18:59;11.77;;;4.53;;
3967;SDS011;9221;42.646;23.380;2023-05-19T15:21:24;9.80;;;5.10;;
3967;SDS011;9221;42.646;23.380;2023-05-19T15:23:50;8.93;;;5.03;;
3967;SDS011;9221;42.646;23.380;2023-05-19T15:26:15;8.43;;;4.53;;